Time;durP1;ratioP1;P1;durP2;ratioP2;P2;SDS_P1;SDS_P2;PMS_P1;PMS_P2;Temp;Humidity;BMP_temperature;BMP_pressure;BME280_temperature;BME280_humidity;BME280_pressure;Samples;Min_cycle;Max_cycle;Signal;HPM_P1;HPM_P2
2024/01/18 00:02:18;;;;;;;16.05;12.43;;;;;;;16.06;42.51;90797.84;4979130;28;20381;-83
2024/01/18 00:04:43;;;;;;;14.23;11.77;;;;;;;16.05;42.22;90796.41;4991111;28;20041;-85
2024/01/18 00:07:08;;;;;;;16.05;11.75;;;;;;;15.98;42.45;90795.19;4996918;28;20546;-83
2024/01/18 00:09:34;;;;;;;15.43;12.25;;;;;;;15.99;42.35;90796.66;4999037;28;20565;-83
2024/01/18 00:11:59;;;;;;;16.05;11.85;;;;;;;15.97;42.42;90793.03;4994907;28;20467;-83
2024/01/18 00:14:25;;;;;;;16.15;11.63;;;;;;;15.96;42.38;90795.03;4978928;28;20491;-83
2024/01/18 00:16:50;;;;;;;16.80;11.93;;;;;;;16.08;42.30;90800.72;4998335;28;20539;-83
2024/01/18 00:19:16;;;;;;;15.88;11.77;;;;;;;16.02;41.97;90806.41;4988062;28;20482;-84
2024/01/18 00:21:41;;;;;;;16.80;11.77;;;;;;;16.00;42.17;90802.81;4998060;28;20462;-84
2024/01/18 00:24:06;;;;;;;16.35;10.98;;;;;;;16.09;42.43;90805.63;4989491;28;20072;-85
2024/01/18 00:26:32;;;;;;;17.55;11.93;;;;;;;16.06;42.19;90803.28;4999916;28;20419;-84
2024/01/18 00:28:59;;;;;;;15.30;12.05;;;;;;;16.07;41.85;90802.75;4979649;28;20038;-83
2024/01/18 00:31:24;;;;;;;16.80;11.55;;;;;;;16.06;42.49;90814.19;5012231;28;20535;-83
2024/01/18 00:33:50;;;;;;;16.70;11.70;;;;;;;16.06;42.01;90817.63;4991211;28;20041;-82
2024/01/18 00:36:15;;;;;;;14.73;11.38;;;;;;;16.05;42.18;90813.47;4995479;28;20038;-84
2024/01/18 00:38:41;;;;;;;12.93;10.30;;;;;;;16.01;42.63;90818.63;5009344;28;20034;-83
2024/01/18 00:41:06;;;;;;;14.63;10.63;;;;;;;16.09;42.06;90821.97;4983573;28;20041;-83
2024/01/18 00:43:32;;;;;;;14.45;10.50;;;;;;;16.01;42.37;90826.06;4977051;28;20053;-83
2024/01/18 00:46:02;;;;;;;15.23;10.95;;;;;;;16.01;42.30;90829.50;4973137;28;20451;-83
2024/01/18 00:48:27;;;;;;;13.63;10.27;;;;;;;16.02;42.06;90832.97;4995658;28;20037;-83
2024/01/18 00:50:53;;;;;;;13.80;10.13;;;;;;;16.03;42.33;90839.84;4982151;28;20404;-83
2024/01/18 00:53:18;;;;;;;13.85;10.10;;;;;;;16.01;42.60;90843.13;4973345;28;20420;-83
2024/01/18 00:55:44;;;;;;;12.18;9.77;;;;;;;15.97;42.45;90834.63;4973753;28;20045;-83
2024/01/18 00:58:09;;;;;;;14.02;10.50;;;;;;;16.06;42.53;90838.72;4967703;28;20385;-83
2024/01/18 01:00:34;;;;;;;12.98;9.95;;;;;;;16.02;42.17;90841.84;5001494;28;20440;-84
2024/01/18 01:03:00;;;;;;;13.07;9.82;;;;;;;15.98;42.53;90832.63;4969717;28;20050;-83
2024/01/18 01:05:26;;;;;;;14.07;9.73;;;;;;;16.06;42.13;90844.91;4967732;28;20070;-87
2024/01/18 01:07:51;;;;;;;13.48;10.38;;;;;;;15.93;42.62;90847.91;4969844;28;20120;-84
2024/01/18 01:10:17;;;;;;;12.43;9.30;;;;;;;16.04;42.16;90847.44;4952597;28;20141;-83
2024/01/18 01:12:42;;;;;;;12.85;9.40;;;;;;;16.00;42.45;90854.59;4994314;28;20747;-84
2024/01/18 01:15:08;;;;;;;12.48;8.70;;;;;;;15.96;42.47;90859.69;4948157;28;20098;-84
2024/01/18 01:17:34;;;;;;;11.10;9.07;;;;;;;16.01;42.21;90858.75;4966608;28;20462;-83
2024/01/18 01:19:59;;;;;;;11.75;8.70;;;;;;;16.00;42.44;90860.75;4950628;28;20142;-84
2024/01/18 01:22:25;;;;;;;13.57;9.88;;;;;;;16.00;42.61;90857.31;4933172;28;20476;-83
2024/01/18 01:24:50;;;;;;;11.68;8.30;;;;;;;15.98;42.51;90855.16;4981570;28;20453;-83
2024/01/18 01:27:15;;;;;;;12.75;9.70;;;;;;;15.97;42.44;90855.69;4948558;28;20457;-83
2024/01/18 01:29:41;;;;;;;11.30;8.82;;;;;;;16.02;42.36;90869.09;4952252;28;20047;-83
2024/01/18 01:32:06;;;;;;;13.13;9.30;;;;;;;16.03;42.68;90875.25;4949426;28;20034;-83
2024/01/18 01:34:32;;;;;;;11.55;8.43;;;;;;;16.02;42.53;90874.53;4969016;28;20420;-83
2024/01/18 01:36:57;;;;;;;11.90;9.32;;;;;;;15.99;42.66;90870.22;4949577;28;20738;-83
2024/01/18 01:39:22;;;;;;;11.05;8.70;;;;;;;15.98;42.46;90878.94;5000638;28;20475;-83
2024/01/18 01:41:49;;;;;;;11.25;8.30;;;;;;;15.97;42.84;90877.50;4969033;28;20683;-83
2024/01/18 01:44:15;;;;;;;11.68;8.30;;;;;;;16.00;42.36;90879.13;4952608;28;20066;-84
2024/01/18 01:46:40;;;;;;;10.23;7.78;;;;;;;15.97;42.63;90872.06;4968087;28;20049;-85
2024/01/18 01:49:06;;;;;;;10.52;8.35;;;;;;;16.03;42.28;90881.44;4968848;28;20203;-85
2024/01/18 01:51:39;;;;;;;9.82;7.93;;;;;;;16.01;42.36;90883.28;4956276;28;20042;-84
2024/01/18 01:54:05;;;;;;;11.77;9.15;;;;;;;16.01;42.55;90880.56;4952151;28;20045;-83
2024/01/18 01:56:31;;;;;;;9.75;7.75;;;;;;;16.01;42.28;90884.00;4985079;28;20050;-82
2024/01/18 01:58:57;;;;;;;11.50;8.52;;;;;;;16.01;42.36;90873.13;4971296;28;20043;-85
2024/01/18 02:01:22;;;;;;;10.18;7.80;;;;;;;16.01;42.62;90870.38;5000411;28;20108;-83
2024/01/18 02:03:48;;;;;;;10.85;8.00;;;;;;;16.06;42.35;90868.69;5004945;28;20042;-83
2024/01/18 02:06:13;;;;;;;10.68;7.68;;;;;;;16.01;42.43;90867.66;4976935;28;20382;-83
2024/01/18 02:08:39;;;;;;;11.63;8.13;;;;;;;16.01;42.22;90856.75;4979934;28;20388;-83
2024/01/18 02:11:04;;;;;;;10.55;8.13;;;;;;;16.02;42.40;90865.66;4959248;28;20068;-84
2024/01/18 02:13:30;;;;;;;9.88;7.35;;;;;;;15.97;42.46;90863.88;4985483;28;20405;-84
2024/01/18 02:15:56;;;;;;;10.45;7.63;;;;;;;15.97;42.40;90863.88;4978013;28;20042;-84
2024/01/18 02:18:22;;;;;;;9.65;7.28;;;;;;;15.97;42.51;90866.59;4989481;28;20043;-84
2024/01/18 02:20:50;;;;;;;9.38;7.20;;;;;;;15.99;42.61;90866.78;4984787;28;20508;-85
2024/01/18 02:23:16;;;;;;;10.27;7.22;;;;;;;16.05;42.39;90859.06;4999001;28;20030;-87
2024/01/18 02:25:41;;;;;;;10.02;7.55;;;;;;;16.00;42.34;90866.22;4981478;28;20773;-85
2024/01/18 02:28:06;;;;;;;10.75;7.68;;;;;;;16.03;42.60;90865.06;4970449;28;20039;-86
2024/01/18 02:30:32;;;;;;;10.27;7.55;;;;;;;16.04;42.42;90863.81;4982183;28;20046;-83
2024/01/18 02:32:57;;;;;;;9.77;7.25;;;;;;;15.98;42.50;90863.31;4964938;28;20038;-83
2024/01/18 02:35:23;;;;;;;8.55;6.70;;;;;;;16.00;42.75;90876.38;4962501;28;20046;-83
2024/01/18 02:37:48;;;;;;;9.57;6.68;;;;;;;15.97;42.62;90869.31;4958067;28;20066;-83
2024/01/18 02:40:14;;;;;;;9.40;6.93;;;;;;;16.00;42.44;90865.50;4956951;28;20474;-84
2024/01/18 02:42:39;;;;;;;7.78;6.80;;;;;;;15.96;42.54;90865.16;4987485;28;20046;-83
2024/01/18 02:45:05;;;;;;;9.93;7.15;;;;;;;15.94;42.97;90868.44;4993906;28;20054;-84
2024/01/18 02:47:31;;;;;;;9.35;7.05;;;;;;;15.98;42.48;90862.59;4980885;28;20492;-83
2024/01/18 02:49:57;;;;;;;8.73;6.47;;;;;;;15.93;42.79;90855.38;4973269;28;20039;-83
2024/01/18 02:52:22;;;;;;;9.15;6.75;;;;;;;15.94;42.62;90862.25;4964654;28;20077;-84
2024/01/18 02:54:47;;;;;;;8.52;6.53;;;;;;;15.97;42.87;90866.59;4999028;28;20052;-83
2024/01/18 02:57:13;;;;;;;7.60;6.55;;;;;;;16.01;42.85;90864.94;4995730;28;20098;-83
2024/01/18 02:59:38;;;;;;;9.98;7.75;;;;;;;16.07;42.60;90864.69;4974252;28;20444;-82
2024/01/18 03:02:04;;;;;;;7.82;6.45;;;;;;;16.07;42.23;90859.97;4986774;28;20043;-83
2024/01/18 03:04:31;;;;;;;8.90;6.50;;;;;;;16.03;42.33;90850.72;4973599;28;20511;-83
2024/01/18 03:06:57;;;;;;;9.90;7.32;;;;;;;16.01;42.73;90856.03;4968536;28;20050;-83
2024/01/18 03:09:22;;;;;;;9.65;7.43;;;;;;;16.06;42.59;90860.53;4972106;28;20047;-84
2024/01/18 03:11:47;;;;;;;10.88;7.05;;;;;;;16.06;42.48;90855.06;4992809;28;20405;-82
2024/01/18 03:14:13;;;;;;;8.75;6.13;;;;;;;16.06;42.58;90855.06;4970743;28;20485;-84
2024/01/18 03:16:42;;;;;;;8.55;6.13;;;;;;;16.06;42.37;90855.06;4979868;28;20051;-83
2024/01/18 03:19:10;;;;;;;8.77;6.43;;;;;;;16.00;42.76;90865.50;4956440;28;20561;-83
2024/01/18 03:21:35;;;;;;;9.65;6.55;;;;;;;15.99;42.71;90856.59;4987654;28;20489;-83
2024/01/18 03:24:01;;;;;;;8.98;5.72;;;;;;;16.01;42.76;90862.22;4955931;28;20074;-83
2024/01/18 03:26:26;;;;;;;7.25;5.93;;;;;;;16.01;42.42;90864.94;4968757;28;20401;-84
2024/01/18 03:28:52;;;;;;;10.40;6.85;;;;;;;15.98;42.56;90860.59;4992062;28;20038;-83
2024/01/18 03:31:17;;;;;;;8.48;5.70;;;;;;;16.05;42.59;90862.53;5004432;28;20700;-83
2024/01/18 03:33:43;;;;;;;7.60;6.03;;;;;;;16.00;42.52;90852.59;4989629;28;20069;-83
2024/01/18 03:36:10;;;;;;;7.47;5.97;;;;;;;15.99;42.55;90869.50;4969172;28;20047;-84
2024/01/18 03:38:35;;;;;;;9.52;6.28;;;;;;;16.01;42.29;90872.38;4957299;28;20690;-83
2024/01/18 03:41:01;;;;;;;8.07;6.22;;;;;;;16.01;42.77;90859.50;5011471;28;20133;-84
2024/01/18 03:43:26;;;;;;;7.65;5.88;;;;;;;15.98;42.79;90868.03;4970309;28;20042;-83
2024/01/18 03:45:52;;;;;;;7.45;5.60;;;;;;;15.92;42.95;90862.09;4971631;28;20456;-84
2024/01/18 03:48:17;;;;;;;7.13;5.65;;;;;;;16.02;42.66;90871.09;4966819;28;20125;-83
2024/01/18 03:50:42;;;;;;;6.68;5.75;;;;;;;15.94;43.19;90862.25;4960150;28;20129;-83
2024/01/18 03:53:08;;;;;;;7.05;5.03;;;;;;;15.95;43.04;90871.88;4966978;28;20748;-88
2024/01/18 03:55:34;;;;;;;7.28;5.57;;;;;;;16.01;42.62;90872.38;4975049;28;20050;-84
2024/01/18 03:58:00;;;;;;;7.38;5.60;;;;;;;15.97;42.66;90880.94;4977055;28;20092;-83
2024/01/18 04:00:25;;;;;;;7.63;5.72;;;;;;;16.00;42.64;90871.66;4986386;28;20050;-84
2024/01/18 04:02:52;;;;;;;7.97;5.38;;;;;;;15.95;42.72;90872.59;4981099;28;20042;-84
2024/01/18 04:05:17;;;;;;;8.25;5.60;;;;;;;15.99;42.38;90875.66;4988092;28;20050;-85
2024/01/18 04:07:43;;;;;;;5.90;5.30;;;;;;;16.07;42.48;90878.31;4999028;28;20034;-84
2024/01/18 04:10:09;;;;;;;6.20;4.95;;;;;;;15.93;42.76;90875.16;4991963;28;20045;-83
2024/01/18 04:12:34;;;;;;;7.00;5.63;;;;;;;15.99;42.79;90874.94;4980097;28;20041;-82
2024/01/18 04:15:00;;;;;;;6.18;5.07;;;;;;;16.00;42.62;90879.13;5001597;28;20060;-85
2024/01/18 04:17:25;;;;;;;6.50;5.03;;;;;;;16.03;42.80;90881.44;4984924;28;20714;-86
2024/01/18 04:19:51;;;;;;;6.10;5.05;;;;;;;15.97;42.76;90883.66;4994111;28;20420;-83
2024/01/18 04:22:16;;;;;;;6.32;5.20;;;;;;;15.94;42.77;90873.88;5018078;28;20563;-88
2024/01/18 04:24:42;;;;;;;5.60;4.88;;;;;;;15.94;43.02;90887.50;4985676;28;20041;-83
2024/01/18 04:27:07;;;;;;;8.55;5.00;;;;;;;15.96;43.01;90884.22;5014949;28;20433;-84
2024/01/18 04:29:33;;;;;;;7.00;5.40;;;;;;;16.05;42.54;90876.16;4977588;28;20087;-86
2024/01/18 04:31:58;;;;;;;7.35;5.43;;;;;;;16.04;42.63;90882.88;5000889;28;20042;-84
2024/01/18 04:34:25;;;;;;;24.08;17.25;;;;;;;16.07;42.94;90875.59;4986438;28;20049;-88
2024/01/18 04:36:50;;;;;;;8.32;5.53;;;;;;;16.13;42.85;90887.00;4995459;28;20045;-86
2024/01/18 04:39:16;;;;;;;10.93;7.70;;;;;;;16.18;43.22;90888.06;4978089;28;20049;-86
2024/01/18 04:41:41;;;;;;;41.33;22.45;;;;;;;16.21;42.92;90879.50;4984370;28;20696;-83
2024/01/18 04:44:08;;;;;;;77.53;42.47;;;;;;;16.22;42.45;90889.13;4980211;28;20038;-88
2024/01/18 04:46:33;;;;;;;88.88;59.53;;;;;;;16.17;42.62;90878.44;5019815;28;20105;-88
2024/01/18 04:48:59;;;;;;;11.52;8.93;;;;;;;16.17;42.55;90881.88;5021574;28;20041;-92
2024/01/18 04:51:24;;;;;;;22.45;15.23;;;;;;;16.16;42.53;90877.72;4973867;28;20065;-87
2024/01/18 04:53:49;;;;;;;28.50;15.25;;;;;;;16.11;42.95;90884.09;5013808;28;20048;-87
2024/01/18 04:56:15;;;;;;;20.77;13.73;;;;;;;16.10;42.91;90885.38;4974862;28;20046;-84
2024/01/18 04:58:40;;;;;;;32.92;19.42;;;;;;;16.17;43.06;90870.25;5013035;28;20830;-82
2024/01/18 05:01:06;;;;;;;36.00;15.50;;;;;;;16.09;42.65;90881.22;4999106;28;20163;-82
2024/01/18 05:03:31;;;;;;;26.27;15.50;;;;;;;16.09;43.13;90881.22;5004165;28;20080;-86
2024/01/18 05:05:57;;;;;;;26.90;16.83;;;;;;;16.12;42.74;90888.28;4972674;28;20640;-83
2024/01/18 05:08:23;;;;;;;28.17;16.48;;;;;;;16.10;42.72;90885.38;4969995;28;20046;-83
2024/01/18 05:10:48;;;;;;;42.25;19.73;;;;;;;16.07;43.10;90894.66;4968447;28;20045;-84
2024/01/18 05:13:14;;;;;;;68.93;25.90;;;;;;;15.84;43.57;90899.53;4988058;28;20038;-85
2024/01/18 05:15:39;;;;;;;46.90;21.35;;;;;;;15.91;43.55;90899.50;4974883;28;20050;-83
2024/01/18 05:18:06;;;;;;;46.42;19.35;;;;;;;15.99;43.36;90899.47;4991557;28;20045;-83
2024/01/18 05:20:33;;;;;;;37.92;19.00;;;;;;;16.03;43.54;90914.13;4975549;28;20111;-84
2024/01/18 05:22:58;;;;;;;46.53;19.98;;;;;;;15.97;43.44;90913.66;4961916;28;20129;-83
2024/01/18 05:25:24;;;;;;;31.63;19.98;;;;;;;15.98;43.25;90906.19;4984423;28;20296;-86
2024/01/18 05:27:49;;;;;;;41.00;21.67;;;;;;;15.97;43.36;90902.03;4972455;28;20801;-83
2024/01/18 05:30:15;;;;;;;44.92;22.83;;;;;;;16.00;43.28;90906.38;4948010;28;20034;-86
2024/01/18 05:32:40;;;;;;;54.85;25.83;;;;;;;16.00;43.18;90904.38;4986379;28;20034;-85
2024/01/18 05:35:06;;;;;;;49.28;25.65;;;;;;;16.03;43.30;90900.50;4971308;28;20042;-89
2024/01/18 05:37:32;;;;;;;133.15;87.25;;;;;;;16.17;43.59;90894.78;4958360;28;20050;-85
2024/01/18 05:39:57;;;;;;;67.10;36.17;;;;;;;16.10;43.37;90897.00;5000739;28;20097;-86
2024/01/18 05:42:23;;;;;;;52.55;29.80;;;;;;;16.18;43.35;90894.22;4977244;28;20665;-83
2024/01/18 05:44:49;;;;;;;51.08;28.33;;;;;;;16.19;42.98;90901.13;4990417;28;20492;-83
2024/01/18 05:47:14;;;;;;;48.28;25.88;;;;;;;16.14;43.09;90901.34;4969163;28;20854;-85
2024/01/18 05:49:40;;;;;;;45.15;25.70;;;;;;;16.17;43.11;90903.69;5006140;28;20041;-82
2024/01/18 05:52:06;;;;;;;53.80;24.95;;;;;;;16.18;42.94;90896.97;5008265;28;20038;-82
2024/01/18 05:54:33;;;;;;;45.53;25.95;;;;;;;16.20;42.86;90905.31;4980800;28;20418;-84
2024/01/18 05:56:59;;;;;;;45.90;25.08;;;;;;;16.20;42.50;90896.41;4990083;28;20460;-82
2024/01/18 05:59:25;;;;;;;45.70;25.45;;;;;;;16.26;42.63;90905.06;4967357;28;20051;-89
2024/01/18 06:01:50;;;;;;;49.38;25.77;;;;;;;16.15;42.89;90898.06;4972961;28;20050;-84
2024/01/18 06:04:16;;;;;;;49.97;27.45;;;;;;;16.20;42.73;90907.31;4981505;28;20045;-82
2024/01/18 06:06:42;;;;;;;45.17;27.00;;;;;;;16.26;42.87;90911.25;4999273;28;20043;-82
2024/01/18 06:09:07;;;;;;;50.13;29.20;;;;;;;16.23;42.69;90912.38;5008173;28;20030;-84
2024/01/18 06:11:33;;;;;;;61.00;32.92;;;;;;;16.21;42.86;90908.75;4998348;28;20069;-83
2024/01/18 06:13:59;;;;;;;59.65;33.28;;;;;;;16.17;43.13;90913.88;4960923;28;20103;-82
2024/01/18 06:16:24;;;;;;;84.55;35.45;;;;;;;16.26;43.20;90913.97;4970316;28;20039;-84
2024/01/18 06:18:50;;;;;;;66.97;35.95;;;;;;;16.22;42.60;90918.38;4984932;28;20116;-81
2024/01/18 06:21:15;;;;;;;63.42;33.58;;;;;;;16.23;43.00;90914.38;4972364;28;20359;-83
2024/01/18 06:23:41;;;;;;;72.18;35.85;;;;;;;16.27;42.87;90918.13;4987800;28;20560;-84
2024/01/18 06:26:10;;;;;;;54.88;32.72;;;;;;;16.23;42.59;90915.09;4980289;28;20074;-85
2024/01/18 06:28:37;;;;;;;56.95;30.52;;;;;;;16.27;42.66;90911.97;4977162;28;20043;-85
2024/01/18 06:31:02;;;;;;;60.50;35.03;;;;;;;16.26;42.93;90918.69;4976166;28;20035;-86
2024/01/18 06:33:28;;;;;;;70.00;41.22;;;;;;;16.27;42.70;90917.41;4972305;28;20039;-85
2024/01/18 06:35:53;;;;;;;80.32;42.63;;;;;;;16.33;42.73;90920.66;4984263;28;20130;-82
2024/01/18 06:38:21;;;;;;;77.70;39.83;;;;;;;16.29;42.72;90921.03;4969798;28;20109;-85
2024/01/18 06:40:50;;;;;;;83.32;43.25;;;;;;;16.24;42.91;90929.44;4975079;28;20122;-81
2024/01/18 06:43:15;;;;;;;89.20;44.15;;;;;;;16.24;42.87;90924.69;4974004;28;20105;-83
2024/01/18 06:45:41;;;;;;;75.65;42.95;;;;;;;16.32;42.78;90930.09;4973096;28;20507;-82
2024/01/18 06:48:06;;;;;;;85.60;47.60;;;;;;;16.26;43.13;90926.88;4967726;28;20039;-85
2024/01/18 06:50:33;;;;;;;77.55;46.20;;;;;;;16.27;42.96;90925.59;4999254;28;20053;-86
2024/01/18 06:52:59;;;;;;;86.03;49.08;;;;;;;16.21;43.24;90930.56;5016679;28;20069;-87
2024/01/18 06:55:25;;;;;;;97.85;46.65;;;;;;;16.24;43.19;90932.19;4970786;28;20126;-86
2024/01/18 06:57:51;;;;;;;102.55;46.75;;;;;;;16.33;42.90;90924.09;5004683;28;20149;-83
2024/01/18 07:00:19;;;;;;;99.75;44.08;;;;;;;16.35;42.97;90929.72;4989889;28;20030;-90
2024/01/18 07:02:46;;;;;;;77.43;38.63;;;;;;;16.32;43.05;90925.38;5000126;28;20037;-89
2024/01/18 07:05:12;;;;;;;90.45;48.00;;;;;;;16.35;42.78;90935.16;5002964;28;20131;-87
2024/01/18 07:07:38;;;;;;;94.53;44.10;;;;;;;16.32;42.79;90916.47;4973108;28;20945;-87
2024/01/18 07:10:05;;;;;;;120.93;71.43;;;;;;;16.36;42.84;90928.44;4989758;28;20045;-85
2024/01/18 07:12:32;;;;;;;80.05;47.17;;;;;;;16.34;42.88;90931.00;4993178;28;20739;-88
2024/01/18 07:14:58;;;;;;;76.25;43.10;;;;;;;16.40;42.79;90928.78;5001868;28;20041;-85
2024/01/18 07:17:23;;;;;;;74.95;40.83;;;;;;;16.40;42.85;90931.50;4979545;28;20044;-86
2024/01/18 07:19:49;;;;;;;59.53;37.58;;;;;;;16.44;42.57;90922.94;4992804;28;20048;-87
2024/01/18 07:22:15;;;;;;;67.05;40.67;;;;;;;16.39;42.59;90932.06;5012583;28;20088;-87
2024/01/18 07:24:41;;;;;;;72.43;40.03;;;;;;;16.45;42.72;90924.38;4994516;28;20076;-86
2024/01/18 07:27:09;;;;;;;84.25;50.17;;;;;;;16.44;42.73;90926.38;4976004;28;20037;-88
2024/01/18 07:29:36;;;;;;;82.57;55.35;;;;;;;16.36;42.72;90925.72;4977296;28;20042;-87
2024/01/18 07:32:02;;;;;;;66.00;40.17;;;;;;;16.40;42.60;90934.22;4976444;28;20037;-86
2024/01/18 07:34:28;;;;;;;60.80;35.28;;;;;;;16.40;42.89;90923.31;4986088;28;20060;-86
2024/01/18 07:36:54;;;;;;;61.80;38.55;;;;;;;16.44;42.78;90928.38;5005511;28;20037;-88
2024/01/18 07:39:20;;;;;;;64.00;36.15;;;;;;;16.41;42.76;90930.22;4996322;28;20037;-88
2024/01/18 07:41:45;;;;;;;63.45;36.92;;;;;;;16.39;42.75;90921.16;5013415;28;20055;-86
2024/01/18 07:44:11;;;;;;;61.55;34.50;;;;;;;16.47;42.52;90921.78;5003728;28;20033;-86
2024/01/18 07:46:37;;;;;;;57.55;34.20;;;;;;;16.46;42.76;90917.63;5007508;28;20038;-86
2024/01/18 07:49:03;;;;;;;50.13;32.90;;;;;;;16.47;42.46;90921.78;5016451;28;20041;-87
2024/01/18 07:51:29;;;;;;;53.08;31.05;;;;;;;16.46;42.60;90914.88;4981620;28;20417;-88
2024/01/18 07:53:55;;;;;;;53.72;31.73;;;;;;;16.48;42.58;90919.78;5002878;28;20721;-85
2024/01/18 07:56:21;;;;;;;55.80;33.58;;;;;;;16.33;42.71;90915.19;4998812;28;20065;-86
2024/01/18 07:58:47;;;;;;;53.35;32.67;;;;;;;16.45;42.79;90921.66;5011888;28;20034;-86
2024/01/18 08:01:15;;;;;;;77.10;33.92;;;;;;;16.30;43.12;90924.47;4995856;28;20069;-88
2024/01/18 08:03:41;;;;;;;135.15;37.00;;;;;;;16.24;42.65;90927.44;4990511;28;20088;-87
2024/01/18 08:06:06;;;;;;;55.80;24.90;;;;;;;16.10;43.27;90920.81;4985173;28;20045;-90
2024/01/18 08:08:32;;;;;;;43.03;21.25;;;;;;;16.08;43.36;90924.09;5001794;28;20925;-88
2024/01/18 08:10:58;;;;;;;40.00;20.00;;;;;;;16.02;43.65;90931.75;5006618;28;20038;-85
2024/01/18 08:13:24;;;;;;;48.40;22.67;;;;;;;16.10;43.96;90929.00;4984875;28;20053;-87
2024/01/18 08:15:51;;;;;;;50.50;27.67;;;;;;;16.09;43.90;90930.25;5008712;28;20459;-86
2024/01/18 08:18:17;;;;;;;53.95;27.55;;;;;;;16.21;44.05;90916.94;5005302;28;20037;-91
2024/01/18 08:20:43;;;;;;;45.45;25.25;;;;;;;16.17;44.04;90927.50;4986747;28;20052;-90
2024/01/18 08:23:11;;;;;;;46.00;25.40;;;;;;;16.19;43.92;90927.66;4996666;28;20034;-86
2024/01/18 08:25:37;;;;;;;50.53;27.33;;;;;;;16.16;44.01;90918.59;4998054;28;20037;-86
2024/01/18 08:28:03;;;;;;;86.47;46.83;;;;;;;16.23;44.32;90936.19;4995205;28;20030;-86
2024/01/18 08:30:28;;;;;;;99.57;42.35;;;;;;;16.28;44.80;90933.22;5007714;28;20128;-88
2024/01/18 08:32:54;;;;;;;74.53;42.03;;;;;;;16.28;44.16;90937.94;5001657;28;20640;-86
2024/01/18 08:35:21;;;;;;;99.60;53.10;;;;;;;16.24;44.83;90921.97;4977559;28;20034;-88
2024/01/18 08:37:48;;;;;;;119.57;60.75;;;;;;;16.22;44.91;90930.00;5004117;28;20058;-89
2024/01/18 08:40:14;;;;;;;132.38;64.30;;;;;;;16.20;44.39;90929.13;4975946;28;20037;-86
2024/01/18 08:42:43;;;;;;;136.38;69.32;;;;;;;16.25;44.38;90920.69;4993144;28;20041;-87
2024/01/18 08:45:09;;;;;;;127.60;63.75;;;;;;;16.16;44.70;90929.50;4976591;28;20606;-88
2024/01/18 08:47:35;;;;;;;139.10;65.90;;;;;;;16.25;44.48;90931.59;4984234;28;20038;-88
2024/01/18 08:50:00;;;;;;;116.53;60.22;;;;;;;16.34;44.80;90919.38;4998642;28;20093;-86
2024/01/18 08:52:27;;;;;;;140.52;66.93;;;;;;;16.29;44.22;90923.75;4994708;28;20052;-87
2024/01/18 08:54:53;;;;;;;121.82;65.90;;;;;;;16.32;44.31;90917.19;4993279;28;20049;-85
2024/01/18 08:57:19;;;;;;;142.20;75.65;;;;;;;16.32;44.19;90922.66;4993683;28;20037;-87
2024/01/18 08:59:55;;;;;;;160.18;81.43;;;;;;;16.34;44.31;90917.38;4997864;28;20124;-90
2024/01/18 09:02:21;;;;;;;210.38;128.75;;;;;;;16.39;44.55;90921.88;5000177;28;20038;-89
2024/01/18 09:04:50;;;;;;;124.10;72.05;;;;;;;16.37;44.40;90927.16;4982821;28;20038;-86
2024/01/18 09:07:16;;;;;;;149.02;76.95;;;;;;;16.36;44.32;90925.72;5009019;28;20044;-87
2024/01/18 09:09:46;;;;;;;143.90;74.70;;;;;;;16.41;44.48;90924.03;5007043;28;20037;-87
2024/01/18 09:12:13;;;;;;;135.82;73.88;;;;;;;16.45;44.26;90930.53;5006294;28;20090;-88
2024/01/18 09:14:49;;;;;;;120.53;72.32;;;;;;;16.29;44.66;90931.94;4974794;28;20643;-87
2024/01/18 09:17:20;;;;;;;128.40;73.88;;;;;;;16.40;44.37;90930.78;4976755;28;20112;-84
2024/01/18 09:19:51;;;;;;;132.30;72.32;;;;;;;16.41;44.29;90934.94;4997455;28;20329;-90
2024/01/18 09:22:18;;;;;;;86.75;51.13;;;;;;;16.36;44.40;90946.78;4967163;28;20093;-88
2024/01/18 09:24:44;;;;;;;191.13;70.18;;;;;;;16.26;44.37;90941.22;4979839;28;20120;-90
2024/01/18 09:27:11;;;;;;;120.82;59.63;;;;;;;16.19;44.29;90941.28;4988957;28;20041;-86
2024/01/18 09:29:37;;;;;;;156.15;72.97;;;;;;;16.20;45.04;90931.84;4978779;28;20598;-87
2024/01/18 09:32:15;;;;;;;151.77;83.22;;;;;;;16.19;45.05;90939.28;4989143;28;20066;-88
2024/01/18 09:34:43;;;;;;;188.75;80.80;;;;;;;16.22;45.04;90940.19;4958802;28;20046;-88
2024/01/18 09:37:09;;;;;;;161.13;79.82;;;;;;;16.27;45.55;90944.66;4952017;28;20046;-86
2024/01/18 09:39:35;;;;;;;133.38;69.20;;;;;;;16.28;44.76;90941.38;4985946;28;20061;-87
2024/01/18 09:42:06;;;;;;;133.98;73.88;;;;;;;16.31;44.82;90934.09;4976813;28;20099;-87
2024/01/18 09:45:01;;;;;;;140.40;75.72;;;;;;;16.32;45.00;90932.81;4921314;28;20157;-88
2024/01/18 09:47:27;;;;;;;166.25;80.35;;;;;;;16.32;45.34;90928.09;4979097;28;20050;-86
2024/01/18 09:49:53;;;;;;;165.02;85.22;;;;;;;16.24;45.47;90932.19;4969720;28;20053;-88
2024/01/18 09:52:29;;;;;;;153.52;75.60;;;;;;;16.31;45.23;90926.66;4933971;28;20101;-89
2024/01/18 09:54:55;;;;;;;188.15;89.88;;;;;;;16.31;45.26;90929.38;5003499;28;20579;-87
2024/01/18 09:57:34;;;;;;;180.75;88.50;;;;;;;16.32;45.37;90921.91;4978322;28;20053;-87
2024/01/18 10:00:03;;;;;;;302.27;143.95;;;;;;;16.42;45.32;90926.22;4971708;28;20054;-86
2024/01/18 10:02:29;;;;;;;236.38;108.93;;;;;;;16.42;45.32;90923.50;4965610;28;20073;-88
2024/01/18 10:05:04;;;;;;;167.85;85.93;;;;;;;16.40;45.56;90925.31;4968846;28;20132;-90
2024/01/18 10:07:31;;;;;;;175.27;90.15;;;;;;;16.33;45.15;90926.09;4962925;28;20059;-88
2024/01/18 10:09:57;;;;;;;177.25;83.78;;;;;;;16.43;45.17;90929.66;4978303;28;20042;-89
2024/01/18 10:12:28;;;;;;;165.95;85.38;;;;;;;16.41;45.39;90924.78;5004081;28;20429;-87
2024/01/18 10:14:53;;;;;;;;;;;;;;;16.36;44.98;90933.16;4988370;28;20074;-86
2024/01/18 10:17:21;;;;;;;174.80;82.55;;;;;;;16.45;45.39;90935.28;4989245;28;19929;-88
2024/01/18 10:20:13;;;;;;;163.80;81.90;;;;;;;16.37;45.17;90929.16;4978215;28;20049;-87
2024/01/18 10:23:02;;;;;;;170.80;84.20;;;;;;;16.41;45.22;90930.22;4925600;28;20304;-90
2024/01/18 10:25:29;;;;;;;149.30;72.00;;;;;;;16.51;45.07;90926.84;4931010;28;20071;-87
2024/01/18 10:28:07;;;;;;;186.10;91.03;;;;;;;16.37;45.09;90932.59;4890679;29;20139;-84
2024/01/18 10:30:36;;;;;;;168.95;84.32;;;;;;;16.36;45.35;90939.34;4902845;29;20043;-90
2024/01/18 10:33:15;;;;;;;196.10;92.40;;;;;;;16.46;45.24;90939.44;4891991;29;20557;-87
2024/01/18 10:35:44;;;;;;;175.50;89.60;;;;;;;16.48;44.97;90936.16;4935293;29;20078;-87
2024/01/18 10:38:19;;;;;;;189.45;92.50;;;;;;;16.44;45.14;90931.13;4883146;29;20055;-85
2024/01/18 10:40:48;;;;;;;164.50;85.47;;;;;;;16.44;45.01;90928.38;4905925;29;20054;-85
2024/01/18 10:43:14;;;;;;;143.43;82.90;;;;;;;16.36;45.22;90931.16;4892969;29;20620;-86
2024/01/18 10:45:40;;;;;;;145.85;80.43;;;;;;;16.44;45.18;90929.09;4900415;28;20134;-88
2024/01/18 10:48:05;;;;;;;134.07;72.00;;;;;;;16.47;45.58;90924.53;4944304;29;20435;-87
2024/01/18 10:50:31;;;;;;;125.47;71.18;;;;;;;16.50;45.36;90915.22;4895974;29;20058;-88
2024/01/18 10:52:57;;;;;;;136.25;74.57;;;;;;;16.47;45.30;90916.34;4913471;29;20065;-85
2024/01/18 10:55:22;;;;;;;124.10;72.72;;;;;;;16.50;45.34;90911.78;4906145;28;20837;-86
2024/01/18 10:57:48;;;;;;;107.47;66.30;;;;;;;16.52;45.26;90909.94;4876972;29;20089;-85
2024/01/18 11:00:15;;;;;;;215.32;99.35;;;;;;;16.58;45.12;90913.16;4888775;29;20042;-88
2024/01/18 11:02:42;;;;;;;173.10;90.80;;;;;;;16.48;45.51;90917.06;4918317;28;20130;-89
2024/01/18 11:05:09;;;;;;;168.57;89.22;;;;;;;16.52;45.19;90912.66;4913936;29;20052;-88
2024/01/18 11:07:42;;;;;;;154.20;88.80;;;;;;;16.46;45.26;90907.44;4910680;28;20047;-89
2024/01/18 11:10:11;;;;;;;166.57;89.30;;;;;;;16.49;45.43;90910.31;4906801;29;20083;-88
2024/01/18 11:12:45;;;;;;;148.93;80.65;;;;;;;16.50;45.37;90906.31;4892315;29;20044;-85
2024/01/18 11:15:11;;;;;;;147.52;85.25;;;;;;;16.46;45.25;90904.72;4894781;29;20644;-86
2024/01/18 11:17:46;;;;;;;140.18;80.93;;;;;;;16.47;45.16;90891.78;4877740;29;20044;-87